createdAt,value
2018-08-03T00:01:39.598Z,19.07
2018-08-03T00:04:08.657Z,17.70
2018-08-03T00:06:37.159Z,17.13
2018-08-03T00:09:08.343Z,19.63
2018-08-03T00:11:37.319Z,18.97
2018-08-03T00:14:06.420Z,18.90
2018-08-03T00:16:35.483Z,19.97
2018-08-03T00:19:04.327Z,21.23
2018-08-03T00:21:33.196Z,21.97
2018-08-03T00:24:02.296Z,22.57
2018-08-03T00:26:31.276Z,21.83
2018-08-03T00:29:00.213Z,22.57
2018-08-03T00:31:29.095Z,22.20
2018-08-03T00:33:57.858Z,22.80
2018-08-03T00:36:26.646Z,23.87
2018-08-03T00:38:55.641Z,22.80
2018-08-03T00:41:24.624Z,22.53
2018-08-03T00:43:53.481Z,23.13
2018-08-03T00:46:21.844Z,21.30
2018-08-03T00:48:50.715Z,21.97
2018-08-03T00:51:19.393Z,20.90
2018-08-03T00:53:48.341Z,21.03
2018-08-03T00:56:17.194Z,21.00
2018-08-03T00:58:45.871Z,21.13
2018-08-03T01:01:14.588Z,21.87
2018-08-03T01:03:43.538Z,19.63
2018-08-03T01:06:12.601Z,20.37
2018-08-03T01:08:41.464Z,19.80
2018-08-03T01:11:10.606Z,18.47
2018-08-03T01:13:39.652Z,19.10
2018-08-03T01:16:08.580Z,18.70
2018-08-03T01:18:37.516Z,18.93
2018-08-03T01:21:06.609Z,18.23
2018-08-03T01:23:36.024Z,19.00
2018-08-03T01:26:04.948Z,19.97
2018-08-03T01:28:33.240Z,19.67
2018-08-03T01:31:02.173Z,18.63
2018-08-03T01:33:31.138Z,19.27
2018-08-03T01:36:00.073Z,18.70
2018-08-03T01:38:28.987Z,17.00
2018-08-03T01:40:57.727Z,15.63
2018-08-03T01:43:26.761Z,18.17
2018-08-03T01:45:55.818Z,16.57
2018-08-03T01:48:24.802Z,18.20
2018-08-03T01:50:53.767Z,18.30
2018-08-03T01:53:22.640Z,17.00
2018-08-03T01:55:51.691Z,16.10
2018-08-03T01:58:20.641Z,17.30
2018-08-03T02:00:49.616Z,16.90
2018-08-03T02:03:18.583Z,18.43
2018-08-03T02:05:47.551Z,19.30
2018-08-03T02:08:16.498Z,20.20
2018-08-03T02:10:45.443Z,19.70
2018-08-03T02:13:14.330Z,18.70
2018-08-03T02:15:43.160Z,20.30
2018-08-03T02:18:12.019Z,17.50
2018-08-03T02:20:40.913Z,17.60
2018-08-03T02:23:09.794Z,17.40
2018-08-03T02:25:38.724Z,16.60
2018-08-03T02:28:07.806Z,15.87
2018-08-03T02:30:36.460Z,16.87
2018-08-03T02:33:05.509Z,17.23
2018-08-03T02:35:34.356Z,17.77
2018-08-03T02:38:03.235Z,17.13
2018-08-03T02:40:32.265Z,17.97
2018-08-03T02:43:01.217Z,16.67
2018-08-03T02:45:30.029Z,17.43
2018-08-03T02:47:58.947Z,18.00
2018-08-03T02:50:27.797Z,17.23
2018-08-03T02:52:56.614Z,18.27
2018-08-03T02:55:25.475Z,19.07
2018-08-03T02:57:54.417Z,18.50
2018-08-03T03:00:23.370Z,16.90
2018-08-03T03:02:52.251Z,17.40
2018-08-03T03:05:21.393Z,16.60
2018-08-03T03:07:50.487Z,15.87
2018-08-03T03:10:19.687Z,15.70
2018-08-03T03:12:48.687Z,14.60
2018-08-03T03:15:17.549Z,16.00
2018-08-03T03:17:46.341Z,15.57
2018-08-03T03:20:15.195Z,15.30
2018-08-03T03:22:44.138Z,15.70
2018-08-03T03:25:13.081Z,14.83
2018-08-03T03:27:41.956Z,16.00
2018-08-03T03:30:10.961Z,15.87
2018-08-03T03:32:39.991Z,15.60
2018-08-03T03:35:09.884Z,15.67
2018-08-03T03:37:38.828Z,15.10
2018-08-03T03:40:07.662Z,15.60
2018-08-03T03:42:36.594Z,15.53
2018-08-03T03:45:05.896Z,15.30
2018-08-03T03:47:34.954Z,15.53
2018-08-03T03:50:03.927Z,15.27
2018-08-03T03:52:32.870Z,16.23
2018-08-03T03:55:01.824Z,15.20
2018-08-03T03:57:30.722Z,15.10
2018-08-03T03:59:59.656Z,16.20
2018-08-03T04:02:28.609Z,16.80
2018-08-03T04:04:57.645Z,16.80
2018-08-03T04:07:27.321Z,17.40
2018-08-03T04:09:56.144Z,16.03
2018-08-03T04:12:25.135Z,16.40
2018-08-03T04:14:54.005Z,15.40
2018-08-03T04:17:22.871Z,15.67
2018-08-03T04:19:51.699Z,14.97
2018-08-03T04:22:20.708Z,15.30
2018-08-03T04:24:49.732Z,13.70
2018-08-03T04:27:18.784Z,14.63
2018-08-03T04:29:47.790Z,15.33
2018-08-03T04:32:16.693Z,15.57
2018-08-03T04:34:45.907Z,14.67
2018-08-03T04:37:14.631Z,15.60
2018-08-03T04:39:43.449Z,14.10
2018-08-03T04:42:12.341Z,15.00
2018-08-03T04:44:41.093Z,15.73
2018-08-03T04:47:09.942Z,16.57
2018-08-03T04:49:39.061Z,16.17
2018-08-03T04:52:08.019Z,16.20
2018-08-03T04:54:37.011Z,16.37
2018-08-03T04:57:05.825Z,15.93
2018-08-03T04:59:34.768Z,16.30
2018-08-03T05:02:03.928Z,17.30
2018-08-03T05:04:32.681Z,16.50
2018-08-03T05:07:01.578Z,16.40
2018-08-03T05:09:30.553Z,17.10
2018-08-03T05:11:59.460Z,18.00
2018-08-03T05:14:28.167Z,18.50
2018-08-03T05:16:57.308Z,18.07
2018-08-03T05:19:26.075Z,18.90
2018-08-03T05:21:54.905Z,18.20
2018-08-03T05:24:23.700Z,16.77
2018-08-03T05:26:52.459Z,17.97
2018-08-03T05:29:21.357Z,18.47
2018-08-03T05:31:50.371Z,19.20
2018-08-03T05:34:19.385Z,19.83
2018-08-03T05:36:48.254Z,20.30
2018-08-03T05:39:17.045Z,20.07
2018-08-03T05:41:46.055Z,18.40
2018-08-03T05:44:14.875Z,19.57
2018-08-03T05:46:43.938Z,20.60
2018-08-03T05:49:12.760Z,21.17
2018-08-03T05:51:41.621Z,20.20
2018-08-03T05:54:10.577Z,21.30
2018-08-03T05:56:39.421Z,21.20
2018-08-03T05:59:08.450Z,21.90
2018-08-03T06:01:37.508Z,20.97
2018-08-03T06:04:07.729Z,22.13
2018-08-03T06:06:36.564Z,21.90
2018-08-03T06:09:08.097Z,22.90
2018-08-03T06:11:37.183Z,22.67
2018-08-03T06:14:06.917Z,21.57
2018-08-03T06:16:36.132Z,20.10
2018-08-03T06:19:04.953Z,21.07
2018-08-03T06:21:33.720Z,21.47
2018-08-03T06:24:02.865Z,21.63
2018-08-03T06:26:31.664Z,21.90
2018-08-03T06:29:00.747Z,21.20
2018-08-03T06:31:30.390Z,23.30
2018-08-03T06:33:59.280Z,22.50
2018-08-03T06:36:28.812Z,22.50
2018-08-03T06:38:57.756Z,22.80
2018-08-03T06:41:26.577Z,20.53
2018-08-03T06:43:55.517Z,22.07
2018-08-03T06:46:24.492Z,21.57
2018-08-03T06:48:53.523Z,23.53
2018-08-03T06:51:22.708Z,22.60
2018-08-03T06:53:51.863Z,21.80
2018-08-03T06:56:20.700Z,23.63
2018-08-03T06:58:50.033Z,20.53
2018-08-03T07:01:19.055Z,19.17
2018-08-03T07:03:47.940Z,15.35
2018-08-03T07:06:16.756Z,18.05
2018-08-03T07:08:45.735Z,21.20
2018-08-03T07:11:14.651Z,18.70
2018-08-03T07:13:43.472Z,16.90
2018-08-03T07:16:12.444Z,15.17
2018-08-03T07:18:41.338Z,15.87
2018-08-03T07:21:10.895Z,17.57
2018-08-03T07:23:39.889Z,18.40
2018-08-03T07:26:08.795Z,17.13
2018-08-03T07:28:38.072Z,15.67
2018-08-03T07:31:07.109Z,17.23
2018-08-03T07:33:36.381Z,16.97
2018-08-03T07:36:05.235Z,15.90
2018-08-03T07:38:34.500Z,16.30
2018-08-03T07:41:03.310Z,17.43
2018-08-03T07:43:32.277Z,16.70
2018-08-03T07:46:00.953Z,12.80
2018-08-03T07:48:30.030Z,12.37
2018-08-03T07:50:58.983Z,11.07
2018-08-03T07:53:28.161Z,12.37
2018-08-03T07:55:57.252Z,17.97
2018-08-03T07:58:26.134Z,19.60
2018-08-03T08:00:55.136Z,20.07
2018-08-03T08:03:24.376Z,15.63
2018-08-03T08:05:53.418Z,14.40
2018-08-03T08:08:22.366Z,11.30
2018-08-03T08:10:51.922Z,9.90
2018-08-03T08:13:21.257Z,11.50
2018-08-03T08:15:50.430Z,14.13
2018-08-03T08:18:19.323Z,12.33
2018-08-03T08:20:48.310Z,10.90
2018-08-03T08:23:17.271Z,9.73
2018-08-03T08:25:46.098Z,9.60
2018-08-03T08:28:15.109Z,8.63
2018-08-03T08:30:44.178Z,8.60
2018-08-03T08:33:12.922Z,13.60
2018-08-03T08:35:42.118Z,13.33
2018-08-03T08:38:11.536Z,11.17
2018-08-03T08:40:40.282Z,12.40
2018-08-03T08:43:09.073Z,12.10
2018-08-03T08:45:38.153Z,13.77
2018-08-03T08:48:07.214Z,16.07
2018-08-03T08:50:36.018Z,16.50
2018-08-03T08:53:05.074Z,13.17
2018-08-03T08:55:34.137Z,13.60
2018-08-03T08:58:03.265Z,10.13
2018-08-03T09:00:32.215Z,9.20
2018-08-03T09:03:01.369Z,8.20
2018-08-03T09:05:30.412Z,8.20
2018-08-03T09:07:59.413Z,9.93
2018-08-03T09:10:28.248Z,13.43
2018-08-03T09:12:57.092Z,13.10
2018-08-03T09:15:26.082Z,15.50
2018-08-03T09:17:55.466Z,14.37
2018-08-03T09:20:24.669Z,11.80
2018-08-03T09:22:53.797Z,11.68
2018-08-03T09:25:22.652Z,14.83
2018-08-03T09:27:51.550Z,17.25
2018-08-03T09:30:20.517Z,15.23
2018-08-03T09:32:49.479Z,17.70
2018-08-03T09:35:18.346Z,16.90
2018-08-03T09:37:47.338Z,14.73
2018-08-03T09:40:16.460Z,15.77
2018-08-03T09:42:45.382Z,13.30
2018-08-03T09:45:14.828Z,11.30
2018-08-03T09:47:43.809Z,9.10
2018-08-03T09:50:12.793Z,7.80
2018-08-03T09:52:41.713Z,8.70
2018-08-03T09:55:10.758Z,7.80
2018-08-03T09:57:39.586Z,6.23
2018-08-03T10:00:08.403Z,6.53
2018-08-03T10:02:37.329Z,7.07
2018-08-03T10:05:06.266Z,7.60
2018-08-03T10:07:35.053Z,9.80
2018-08-03T10:10:04.310Z,13.20
2018-08-03T10:12:33.362Z,10.47
2018-08-03T10:15:02.106Z,7.40
2018-08-03T10:17:30.535Z,6.60
2018-08-03T10:19:59.537Z,5.50
2018-08-03T10:22:28.383Z,6.30
2018-08-03T10:24:57.330Z,6.30
2018-08-03T10:27:26.354Z,6.47
2018-08-03T10:29:55.318Z,5.73
2018-08-03T10:32:28.217Z,7.00
2018-08-03T10:34:57.389Z,7.00
2018-08-03T10:37:26.280Z,7.47
2018-08-03T10:39:55.264Z,6.83
2018-08-03T10:42:24.072Z,8.33
2018-08-03T10:44:53.036Z,7.13
2018-08-03T10:47:22.010Z,7.50
2018-08-03T10:49:50.918Z,11.00
2018-08-03T10:52:19.988Z,15.33
2018-08-03T10:54:48.703Z,14.10
2018-08-03T10:57:17.665Z,11.30
2018-08-03T10:59:46.401Z,9.40
2018-08-03T11:02:15.365Z,9.60
2018-08-03T11:04:44.307Z,9.20
2018-08-03T11:07:13.299Z,12.87
2018-08-03T11:09:42.169Z,11.80
2018-08-03T11:12:11.173Z,14.40
2018-08-03T11:14:40.106Z,14.47
2018-08-03T11:17:09.060Z,13.13
2018-08-03T11:19:37.960Z,14.30
2018-08-03T11:22:06.933Z,11.97
2018-08-03T11:24:35.801Z,9.57
2018-08-03T11:27:05.833Z,8.80
2018-08-03T11:29:34.661Z,9.07
2018-08-03T11:32:03.719Z,7.53
2018-08-03T11:34:32.609Z,7.17
2018-08-03T11:37:01.727Z,7.70
2018-08-03T11:39:30.691Z,6.87
2018-08-03T11:41:59.725Z,6.40
2018-08-03T11:44:28.664Z,6.30
2018-08-03T11:46:57.789Z,9.03
2018-08-03T11:49:26.793Z,9.60
2018-08-03T11:51:55.577Z,9.37
2018-08-03T11:54:24.505Z,7.40
2018-08-03T11:56:53.391Z,8.60
2018-08-03T11:59:22.441Z,8.00
2018-08-03T12:01:51.460Z,6.97
2018-08-03T12:04:20.436Z,6.60
2018-08-03T12:06:49.901Z,7.60
2018-08-03T12:09:19.169Z,12.47
2018-08-03T12:11:48.386Z,11.43
2018-08-03T12:14:17.406Z,10.33
2018-08-03T12:16:46.181Z,8.10
2018-08-03T12:19:15.332Z,7.10
2018-08-03T12:21:44.818Z,7.67
2018-08-03T12:24:13.860Z,12.50
2018-08-03T12:26:42.970Z,11.80
2018-08-03T12:29:11.954Z,9.30
2018-08-03T12:31:40.866Z,8.53
2018-08-03T12:34:09.814Z,11.37
2018-08-03T12:36:38.326Z,12.50
2018-08-03T12:39:09.382Z,9.40
2018-08-03T12:41:38.503Z,9.40
2018-08-03T12:44:07.862Z,8.00
2018-08-03T12:46:36.785Z,10.03
2018-08-03T12:49:05.645Z,12.77
2018-08-03T12:51:34.857Z,12.13
2018-08-03T12:54:03.998Z,9.50
2018-08-03T12:56:32.650Z,7.80
2018-08-03T12:59:01.701Z,7.63
2018-08-03T13:01:29.929Z,5.93
2018-08-03T13:03:58.881Z,6.33
2018-08-03T13:06:27.598Z,8.10
2018-08-03T13:08:56.397Z,8.93
2018-08-03T13:11:25.368Z,8.30
2018-08-03T13:13:54.185Z,10.13
2018-08-03T13:16:23.176Z,7.70
2018-08-03T13:18:52.157Z,8.00
2018-08-03T13:21:34.281Z,7.80
2018-08-03T13:24:03.597Z,7.37
2018-08-03T13:26:32.537Z,7.50
2018-08-03T13:29:01.690Z,6.20
2018-08-03T13:31:31.341Z,5.77
2018-08-03T13:34:00.380Z,5.83
2018-08-03T13:36:30.417Z,7.00
2018-08-03T13:38:59.279Z,7.83
2018-08-03T13:41:28.147Z,7.47
2018-08-03T13:43:57.252Z,6.70
2018-08-03T13:46:25.993Z,6.20
2018-08-03T13:48:54.925Z,5.53
2018-08-03T13:51:23.871Z,6.10
2018-08-03T13:53:52.796Z,8.27
2018-08-03T13:56:21.613Z,8.27
2018-08-03T13:58:50.465Z,8.00
2018-08-03T14:01:30.542Z,7.60
2018-08-03T14:03:59.531Z,7.80
2018-08-03T14:06:28.615Z,7.03
2018-08-03T14:08:57.441Z,6.23
2018-08-03T14:11:26.214Z,13.47
2018-08-03T14:13:55.252Z,12.03
2018-08-03T14:16:24.316Z,11.37
2018-08-03T14:18:53.325Z,10.13
2018-08-03T14:21:22.152Z,8.30
2018-08-03T14:23:50.971Z,8.00
2018-08-03T14:26:19.740Z,7.40
2018-08-03T14:28:48.640Z,6.23
2018-08-03T14:31:17.340Z,8.90
2018-08-03T14:33:46.422Z,13.60
2018-08-03T14:36:15.399Z,10.20
2018-08-03T14:38:44.292Z,8.60
2018-08-03T14:41:13.248Z,8.20
2018-08-03T14:43:42.266Z,7.33
2018-08-03T14:46:11.161Z,6.73
2018-08-03T14:48:40.191Z,6.53
2018-08-03T14:51:09.207Z,6.77
2018-08-03T14:53:38.114Z,6.33
2018-08-03T14:56:07.003Z,6.13
2018-08-03T14:58:35.793Z,15.00
2018-08-03T15:01:04.825Z,13.37
2018-08-03T15:03:33.156Z,12.40
2018-08-03T15:06:02.246Z,9.00
2018-08-03T15:08:31.341Z,8.30
2018-08-03T15:11:00.227Z,6.90
2018-08-03T15:13:29.225Z,5.93
2018-08-03T15:15:58.361Z,5.77
2018-08-03T15:18:27.316Z,6.50
2018-08-03T15:20:56.297Z,6.13
2018-08-03T15:23:25.189Z,8.33
2018-08-03T15:25:54.153Z,8.80
2018-08-03T15:28:23.440Z,6.87
2018-08-03T15:30:52.257Z,5.87
2018-08-03T15:33:21.115Z,5.80
2018-08-03T15:35:50.033Z,5.57
2018-08-03T15:38:18.947Z,6.03
2018-08-03T15:40:48.378Z,5.80
2018-08-03T15:43:17.244Z,6.50
2018-08-03T15:45:46.254Z,6.33
2018-08-03T15:48:15.247Z,6.00
2018-08-03T15:50:44.024Z,5.40
2018-08-03T15:53:12.900Z,5.03
2018-08-03T15:55:41.882Z,5.60
2018-08-03T15:58:10.711Z,6.47
2018-08-03T16:00:39.695Z,7.33
2018-08-03T16:03:08.669Z,6.73
2018-08-03T16:05:37.730Z,6.50
2018-08-03T16:08:06.663Z,7.37
2018-08-03T16:10:35.766Z,6.50
2018-08-03T16:13:05.752Z,6.77
2018-08-03T16:15:35.051Z,6.80
2018-08-03T16:18:04.394Z,6.77
2018-08-03T16:20:33.317Z,6.07
2018-08-03T16:23:02.194Z,5.80
2018-08-03T16:25:31.406Z,5.60
2018-08-03T16:28:00.475Z,5.23
2018-08-03T16:30:29.453Z,8.40
2018-08-03T16:32:58.339Z,7.07
2018-08-03T16:35:27.284Z,6.80
2018-08-03T16:37:56.493Z,8.33
2018-08-03T16:40:25.820Z,6.90
2018-08-03T16:42:54.957Z,6.70
2018-08-03T16:45:24.171Z,7.07
2018-08-03T16:47:53.043Z,6.43
2018-08-03T16:50:22.117Z,6.10
2018-08-03T16:52:51.385Z,5.87
2018-08-03T16:55:20.237Z,5.33
2018-08-03T16:57:49.111Z,5.70
2018-08-03T17:00:18.933Z,5.40
2018-08-03T17:02:48.628Z,5.43
2018-08-03T17:05:17.426Z,6.80
2018-08-03T17:07:46.641Z,6.93
2018-08-03T17:10:15.911Z,6.00
2018-08-03T17:12:44.606Z,6.80
2018-08-03T17:15:13.529Z,6.70
2018-08-03T17:17:42.465Z,6.17
2018-08-03T17:20:14.685Z,5.90
2018-08-03T17:22:43.881Z,6.37
2018-08-03T17:25:13.135Z,6.50
2018-08-03T17:27:42.189Z,6.43
2018-08-03T17:30:11.139Z,6.30
2018-08-03T17:32:40.043Z,7.53
2018-08-03T17:35:08.952Z,7.17
2018-08-03T17:37:37.953Z,5.70
2018-08-03T17:40:07.650Z,7.13
2018-08-03T17:42:36.699Z,7.73
2018-08-03T17:45:06.006Z,7.97
2018-08-03T17:47:34.895Z,8.40
2018-08-03T17:50:03.974Z,8.07
2018-08-03T17:52:32.836Z,7.30
2018-08-03T17:55:01.799Z,6.73
2018-08-03T17:57:30.625Z,6.80
2018-08-03T17:59:59.588Z,6.60
2018-08-03T18:02:28.435Z,7.23
2018-08-03T18:04:57.197Z,6.50
2018-08-03T18:07:26.147Z,6.10
2018-08-03T18:09:55.052Z,6.60
2018-08-03T18:12:23.942Z,6.40
2018-08-03T18:14:52.952Z,6.20
2018-08-03T18:17:21.947Z,6.23
2018-08-03T18:19:50.702Z,5.37
2018-08-03T18:22:19.613Z,5.90
2018-08-03T18:24:48.515Z,5.80
2018-08-03T18:27:17.507Z,6.00
2018-08-03T18:29:46.320Z,6.83
2018-08-03T18:32:15.256Z,6.67
2018-08-03T18:34:44.242Z,6.20
2018-08-03T18:37:13.168Z,7.22
2018-08-03T18:39:42.167Z,8.30
2018-08-03T18:42:11.169Z,8.50
2018-08-03T18:44:39.986Z,8.43
2018-08-03T18:47:08.794Z,8.40
2018-08-03T18:49:37.817Z,8.57
2018-08-03T18:52:06.789Z,8.73
2018-08-03T18:54:35.721Z,9.13
2018-08-03T18:57:04.826Z,10.13
2018-08-03T18:59:33.795Z,11.73
2018-08-03T19:02:02.824Z,11.27
2018-08-03T19:04:31.598Z,12.37
2018-08-03T19:07:00.608Z,12.17
2018-08-03T19:09:29.569Z,11.10
2018-08-03T19:11:58.325Z,11.17
2018-08-03T19:14:27.367Z,11.83
2018-08-03T19:16:56.362Z,11.20
2018-08-03T19:19:25.966Z,11.67
2018-08-03T19:21:54.930Z,12.30
2018-08-03T19:24:23.857Z,12.70
2018-08-03T19:26:53.005Z,12.20
2018-08-03T19:29:21.916Z,12.70
2018-08-03T19:31:50.875Z,13.00
2018-08-03T19:34:19.733Z,13.93
2018-08-03T19:36:48.634Z,15.00
2018-08-03T19:39:17.652Z,15.27
2018-08-03T19:41:46.917Z,15.73
2018-08-03T19:44:15.837Z,15.30
2018-08-03T19:46:44.824Z,14.70
2018-08-03T19:49:13.801Z,15.27
2018-08-03T19:51:42.646Z,15.67
2018-08-03T19:54:11.199Z,16.23
2018-08-03T19:56:40.047Z,14.87
2018-08-03T19:59:09.006Z,15.70
2018-08-03T20:01:37.769Z,15.97
2018-08-03T20:04:07.352Z,15.50
2018-08-03T20:06:36.562Z,16.80
2018-08-03T20:09:08.445Z,15.57
2018-08-03T20:11:37.466Z,15.47
2018-08-03T20:14:06.291Z,16.63
2018-08-03T20:16:35.331Z,17.03
2018-08-03T20:19:04.183Z,16.00
2018-08-03T20:21:33.090Z,15.97
2018-08-03T20:24:02.050Z,17.07
2018-08-03T20:26:31.038Z,16.47
2018-08-03T20:29:02.080Z,15.37
2018-08-03T20:31:31.012Z,15.87
2018-08-03T20:33:59.916Z,16.50
2018-08-03T20:36:28.407Z,16.60
2018-08-03T20:38:57.292Z,16.27
2018-08-03T20:41:26.143Z,16.20
2018-08-03T20:43:55.178Z,15.63
2018-08-03T20:46:24.070Z,17.33
2018-08-03T20:48:53.842Z,17.13
2018-08-03T20:51:22.702Z,16.20
2018-08-03T20:53:51.369Z,17.17
2018-08-03T20:56:20.257Z,16.50
2018-08-03T20:58:48.972Z,16.23
2018-08-03T21:01:17.603Z,16.70
2018-08-03T21:03:46.362Z,17.03
2018-08-03T21:06:15.202Z,16.03
2018-08-03T21:08:44.094Z,16.37
2018-08-03T21:11:13.063Z,16.57
2018-08-03T21:13:41.805Z,16.90
2018-08-03T21:16:10.624Z,17.60
2018-08-03T21:18:39.437Z,16.97
2018-08-03T21:21:08.430Z,17.83
2018-08-03T21:23:37.461Z,18.73
2018-08-03T21:26:06.421Z,18.47
2018-08-03T21:28:35.260Z,19.30
2018-08-03T21:31:04.224Z,19.37
2018-08-03T21:33:33.182Z,19.57
2018-08-03T21:36:02.101Z,19.23
2018-08-03T21:38:31.526Z,18.53
2018-08-03T21:41:00.572Z,18.40
2018-08-03T21:43:29.405Z,18.47
2018-08-03T21:45:58.361Z,17.73
2018-08-03T21:48:27.222Z,18.30
2018-08-03T21:50:56.222Z,18.03
2018-08-03T21:53:24.945Z,17.30
2018-08-03T21:55:53.684Z,17.80
2018-08-03T21:58:22.564Z,17.13
2018-08-03T22:00:51.605Z,17.03
2018-08-03T22:03:20.397Z,17.57
2018-08-03T22:05:49.415Z,15.50
2018-08-03T22:08:18.297Z,16.77
2018-08-03T22:10:47.257Z,18.20
2018-08-03T22:13:16.203Z,16.50
2018-08-03T22:15:45.109Z,16.90
2018-08-03T22:18:14.089Z,16.17
2018-08-03T22:20:43.045Z,16.33
2018-08-03T22:23:11.763Z,17.13
2018-08-03T22:25:40.690Z,17.33
2018-08-03T22:28:09.661Z,16.57
2018-08-03T22:30:38.601Z,17.53
2018-08-03T22:33:07.420Z,16.87
2018-08-03T22:35:36.385Z,16.73
2018-08-03T22:38:05.226Z,18.40
2018-08-03T22:40:34.203Z,18.20
2018-08-03T22:43:02.942Z,18.33
2018-08-03T22:45:31.912Z,16.60
2018-08-03T22:48:00.857Z,16.97
2018-08-03T22:50:29.907Z,16.77
2018-08-03T22:52:58.941Z,16.87
2018-08-03T22:55:27.863Z,17.83
2018-08-03T22:57:56.591Z,16.00
2018-08-03T23:00:25.515Z,15.73
2018-08-03T23:02:54.730Z,16.10
2018-08-03T23:05:23.604Z,17.13
2018-08-03T23:07:52.446Z,16.13
2018-08-03T23:10:21.431Z,16.20
2018-08-03T23:12:50.530Z,17.00
2018-08-03T23:15:19.591Z,17.50
2018-08-03T23:17:48.604Z,18.07
2018-08-03T23:20:17.433Z,17.07
2018-08-03T23:22:46.361Z,16.73
2018-08-03T23:25:15.073Z,16.90
2018-08-03T23:27:44.046Z,18.50
2018-08-03T23:30:12.826Z,17.03
2018-08-03T23:32:41.946Z,17.83
2018-08-03T23:35:10.947Z,16.77
2018-08-03T23:37:40.005Z,17.90
2018-08-03T23:40:08.706Z,17.47
2018-08-03T23:42:37.697Z,17.60
2018-08-03T23:45:07.235Z,16.43
2018-08-03T23:47:36.570Z,17.17
2018-08-03T23:50:11.120Z,17.53
2018-08-03T23:52:39.988Z,17.20
2018-08-03T23:55:08.867Z,16.87
2018-08-03T23:57:37.424Z,16.13
